Time;durP1;ratioP1;P1;durP2;ratioP2;P2;SDS_P1;SDS_P2;PMS_P1;PMS_P2;Temp;Humidity;BMP_temperature;BMP_pressure;BME280_temperature;BME280_humidity;BME280_pressure;Samples;Min_cycle;Max_cycle;Signal;HPM_P1;HPM_P2
2022/03/06 00:01:46;;;;;;;;;;;2.30;82.00;;;0.99;77.21;96462.00;4140852;33;23944;-84
2022/03/06 00:04:15;;;;;;;;;;;2.30;82.10;;;0.97;77.71;96458.72;4148869;33;20221;-84
2022/03/06 00:06:45;;;;;;;;;;;2.30;82.20;;;0.97;77.90;96467.63;4170977;33;19909;-84
2022/03/06 00:09:15;;;;;;;;;;;2.30;82.10;;;0.98;77.12;96466.59;4168975;33;20204;-84
2022/03/06 00:11:44;;;;;;;;;;;2.30;82.10;;;0.98;77.35;96465.72;4147639;33;19906;-83
2022/03/06 00:14:12;;;;;;;;;;;2.30;82.20;;;0.97;77.81;96464.09;4146245;33;19902;-83
2022/03/06 00:16:41;;;;;;;;;;;2.30;82.20;;;0.97;77.43;96464.91;4147797;33;20612;-83
2022/03/06 00:19:10;;;;;;;;;;;2.30;82.20;;;0.96;77.54;96463.25;4169284;33;20214;-84
2022/03/06 00:21:38;;;;;;;;;;;2.30;82.20;;;0.97;77.39;96469.50;4146655;33;19917;-84
2022/03/06 00:24:07;;;;;;;;;;;2.30;82.10;;;0.96;77.41;96467.81;4147668;33;20225;-84
2022/03/06 00:26:37;;;;;;;;;;;2.30;82.10;;;0.97;77.31;96461.41;4149093;33;20530;-85
2022/03/06 00:29:06;;;;;;;;;;;2.30;82.10;;;0.96;77.41;96457.03;4149401;33;20198;-84
2022/03/06 00:31:35;;;;;;;;;;;2.30;82.10;;;0.95;77.60;96461.59;4173017;33;20101;-83
2022/03/06 00:34:03;;;;;;;;;;;2.30;81.90;;;0.95;77.46;96452.69;4149366;33;20237;-84
2022/03/06 00:36:32;;;;;;;;;;;2.30;82.00;;;0.96;77.34;96454.34;4170511;33;20196;-84
2022/03/06 00:39:00;;;;;;;;;;;2.30;82.10;;;0.95;77.73;96447.28;4169627;33;20194;-84
2022/03/06 00:41:29;;;;;;;;;;;2.30;82.10;;;0.93;77.51;96435.88;4146114;33;20205;-83
2022/03/06 00:43:59;;;;;;;;;;;2.30;82.10;;;0.94;77.40;96445.63;4146681;33;19902;-83
2022/03/06 00:46:27;;;;;;;;;;;2.30;82.10;;;0.95;77.29;96439.22;4169405;33;19903;-83
2022/03/06 00:48:56;;;;;;;;;;;2.30;82.10;;;0.91;77.43;96426.13;4146010;33;20243;-84
2022/03/06 00:51:25;;;;;;;;;;;2.20;82.00;;;0.93;77.22;96435.88;4145953;33;19902;-84
2022/03/06 00:53:53;;;;;;;;;;;2.30;82.10;;;0.93;77.46;96435.88;4148430;33;20194;-83
2022/03/06 00:56:22;;;;;;;;;;;2.20;82.00;;;0.90;77.29;96437.94;4146735;33;19902;-83
2022/03/06 00:58:50;;;;;;;;;;;2.30;82.20;;;0.92;77.47;96432.34;4147180;33;20521;-83
2022/03/06 01:01:20;;;;;;;;;;;2.20;82.00;;;0.90;77.24;96437.94;4146924;33;19902;-83
2022/03/06 01:03:48;;;;;;;;;;;2.20;81.90;;;0.91;77.44;96442.31;4147515;33;20236;-83
2022/03/06 01:06:17;;;;;;;;;;;2.20;82.00;;;0.90;77.56;96432.56;4147981;33;20195;-83
2022/03/06 01:08:45;;;;;;;;;;;2.20;81.90;;;0.90;77.22;96431.75;4148095;33;19910;-83
2022/03/06 01:11:14;;;;;;;;;;;2.20;81.90;;;0.89;77.02;96436.28;4171648;33;19906;-83
2022/03/06 01:13:42;;;;;;;;;;;2.20;81.90;;;0.89;77.41;96425.50;4171278;33;20535;-83
2022/03/06 01:16:11;;;;;;;;;;;2.20;81.90;;;0.87;77.47;96424.88;4148366;33;19925;-83
2022/03/06 01:18:41;;;;;;;;;;;2.20;82.00;;;0.89;77.15;96424.69;4147752;33;20187;-84
2022/03/06 01:21:09;;;;;;;;;;;2.20;81.90;;;0.90;77.19;96423.66;4148263;33;20191;-84
2022/03/06 01:23:38;;;;;;;;;;;2.20;81.90;;;0.87;77.20;96419.47;4169488;33;19902;-83
2022/03/06 01:26:06;;;;;;;;;;;2.20;81.70;;;0.87;77.25;96422.16;4161657;33;20195;-83
2022/03/06 01:28:35;;;;;;;;;;;2.20;81.90;;;0.87;77.36;96424.06;4160937;33;19910;-83
2022/03/06 01:31:04;;;;;;;;;;;2.20;81.90;;;0.86;77.58;96425.09;4162714;33;20209;-84
2022/03/06 01:33:32;;;;;;;;;;;2.20;81.80;;;0.86;77.66;96420.50;4140296;33;20215;-83
2022/03/06 01:36:05;;;;;;;;;;;2.20;82.00;;;0.85;77.29;96431.50;4139745;33;20105;-84
2022/03/06 01:38:33;;;;;;;;;;;2.20;81.90;;;0.86;77.15;96419.69;4139624;33;20195;-84
2022/03/06 01:41:02;;;;;;;;;;;2.20;81.80;;;0.85;77.35;96418.84;4139057;33;20207;-85
2022/03/06 01:43:30;;;;;;;;;;;2.20;81.80;;;0.84;77.40;96416.38;4162083;33;20211;-84
2022/03/06 01:45:59;;;;;;;;;;;2.20;81.90;;;0.84;77.47;96416.38;4162454;33;19902;-83
2022/03/06 01:48:27;;;;;;;;;;;2.20;82.00;;;0.84;77.40;96419.88;4161832;33;20206;-84
2022/03/06 01:50:56;;;;;;;;;;;2.20;81.90;;;0.83;77.15;96422.78;4162538;33;19902;-83
2022/03/06 01:53:25;;;;;;;;;;;2.20;81.80;;;0.84;77.40;96430.66;4139300;33;20555;-85
2022/03/06 01:55:54;;;;;;;;;;;2.20;81.80;;;0.83;77.34;96426.31;4139407;33;20228;-84
2022/03/06 01:58:22;;;;;;;;;;;2.20;81.80;;;0.83;77.26;96431.72;4138902;33;19903;-84
2022/03/06 02:00:51;;;;;;;;;;;2.20;81.80;;;0.82;77.11;96424.66;4139760;33;20206;-84
2022/03/06 02:03:20;;;;;;;;;;;2.20;81.90;;;0.81;77.13;96420.31;4138960;33;19909;-84
2022/03/06 02:05:49;;;;;;;;;;;2.20;81.90;;;0.82;77.35;96424.66;4166055;33;20215;-84
2022/03/06 02:08:17;;;;;;;;;;;2.20;81.90;;;0.82;77.58;96421.97;4139359;33;20089;-84
2022/03/06 02:10:48;;;;;;;;;;;2.20;81.90;;;0.80;77.58;96415.94;4142428;33;19909;-83
2022/03/06 02:13:16;;;;;;;;;;;2.20;82.00;;;0.81;77.45;96412.22;4151754;33;19911;-83
2022/03/06 02:15:45;;;;;;;;;;;2.10;82.00;;;0.80;77.30;96409.72;4118472;33;19906;-83
2022/03/06 02:18:13;;;;;;;;;;;2.20;82.00;;;0.80;77.60;96413.25;4118471;33;20199;-83
2022/03/06 02:20:42;;;;;;;;;;;2.10;82.10;;;0.79;77.67;96403.50;4117990;33;20202;-83
2022/03/06 02:23:12;;;;;;;;;;;2.10;82.10;;;0.80;77.54;96413.25;4144016;33;20278;-83
2022/03/06 02:25:40;;;;;;;;;;;2.20;82.20;;;0.81;77.39;96419.47;4120413;33;20553;-84
2022/03/06 02:28:10;;;;;;;;;;;2.10;82.00;;;0.80;77.30;96409.72;4120548;33;19903;-83
2022/03/06 02:30:40;;;;;;;;;;;2.10;82.10;;;0.80;77.54;96410.56;4121809;33;20200;-83
2022/03/06 02:33:10;;;;;;;;;;;2.10;82.10;;;0.80;77.60;96415.09;4143770;33;19909;-83
2022/03/06 02:35:39;;;;;;;;;;;2.10;82.10;;;0.79;77.65;96416.97;4119921;33;20215;-83
2022/03/06 02:38:08;;;;;;;;;;;2.10;82.00;;;0.77;77.69;96411.78;4119636;33;19909;-83
2022/03/06 02:40:42;;;;;;;;;;;2.10;82.10;;;0.80;77.35;96425.88;4119897;33;20524;-83
2022/03/06 02:43:11;;;;;;;;;;;2.10;82.10;;;0.79;77.50;96416.97;4119947;33;19903;-83
2022/03/06 02:45:40;;;;;;;;;;;2.10;82.10;;;0.80;77.49;96420.50;4119405;33;19902;-83
2022/03/06 02:48:09;;;;;;;;;;;2.10;82.00;;;0.76;77.25;96423.63;4142263;33;20233;-83
2022/03/06 02:50:38;;;;;;;;;;;2.10;82.00;;;0.79;77.40;96421.53;4119528;33;19910;-83
2022/03/06 02:53:09;;;;;;;;;;;2.10;82.10;;;0.79;77.50;96419.69;4120082;33;20203;-83
2022/03/06 02:55:39;;;;;;;;;;;2.10;82.00;;;0.77;77.26;96421.72;4142070;33;20550;-83
2022/03/06 02:58:08;;;;;;;;;;;2.10;82.10;;;0.79;77.61;96430.44;4119052;33;20573;-83
2022/03/06 03:00:37;;;;;;;;;;;2.10;82.00;;;0.79;77.56;96435.84;4119015;33;19903;-83
2022/03/06 03:03:05;;;;;;;;;;;2.10;82.00;;;0.79;77.59;96440.38;4119486;33;20226;-83
2022/03/06 03:05:34;;;;;;;;;;;2.10;82.00;;;0.79;77.54;96432.31;4142940;33;19910;-83
2022/03/06 03:08:02;;;;;;;;;;;2.10;82.10;;;0.76;77.74;96434.41;4119095;33;20194;-84
2022/03/06 03:10:30;;;;;;;;;;;2.10;82.10;;;0.78;77.54;96431.47;4119039;33;19903;-83
2022/03/06 03:13:00;;;;;;;;;;;2.10;82.00;;;0.78;77.28;96434.19;4117701;33;20241;-83
2022/03/06 03:15:29;;;;;;;;;;;2.10;82.10;;;0.77;77.36;96429.81;4141374;33;20734;-83
2022/03/06 03:17:57;;;;;;;;;;;2.10;82.10;;;0.77;77.55;96440.59;4141437;33;20207;-83
2022/03/06 03:20:26;;;;;;;;;;;2.10;82.10;;;0.77;77.65;96437.91;4118790;33;19907;-83
2022/03/06 03:22:54;;;;;;;;;;;2.10;82.10;;;0.75;77.47;96439.97;4141492;33;20227;-83
2022/03/06 03:25:23;;;;;;;;;;;2.10;82.10;;;0.76;77.51;96441.63;4118123;33;20235;-83
2022/03/06 03:27:51;;;;;;;;;;;2.10;82.20;;;0.76;77.43;96438.94;4117027;33;20190;-84
2022/03/06 03:30:21;;;;;;;;;;;2.10;82.10;;;0.76;77.67;96442.47;4117111;33;20106;-83
2022/03/06 03:32:50;;;;;;;;;;;2.10;82.20;;;0.75;77.45;96435.41;4141409;33;20106;-84
2022/03/06 03:35:18;;;;;;;;;;;2.10;82.10;;;0.76;77.66;96434.41;4116125;33;20210;-84
2022/03/06 03:37:46;;;;;;;;;;;2.10;82.10;;;0.75;77.71;96440.81;4116046;33;19903;-84
2022/03/06 03:40:15;;;;;;;;;;;2.10;82.20;;;0.76;77.49;96436.25;4116448;33;20223;-84
2022/03/06 03:42:43;;;;;;;;;;;2.10;82.10;;;0.75;77.47;96440.81;4140246;33;19903;-84
2022/03/06 03:45:12;;;;;;;;;;;2.10;82.10;;;0.73;77.60;96437.50;4117065;33;20209;-84
2022/03/06 03:47:42;;;;;;;;;;;2.10;82.20;;;0.74;77.47;96439.16;4117113;33;19902;-83
2022/03/06 03:50:11;;;;;;;;;;;2.10;82.10;;;0.75;77.76;96437.28;4138999;33;19909;-83
2022/03/06 03:52:39;;;;;;;;;;;2.10;82.10;;;0.74;77.54;96439.16;4139630;33;20183;-83
2022/03/06 03:55:08;;;;;;;;;;;2.10;82.10;;;0.74;77.95;96430.22;4141364;33;20198;-84
2022/03/06 03:57:37;;;;;;;;;;;2.10;82.10;;;0.74;77.67;96424.81;4144286;33;20216;-84
2022/03/06 04:00:07;;;;;;;;;;;2.00;82.10;;;0.73;77.69;96425.84;4169227;33;19930;-84
2022/03/06 04:02:36;;;;;;;;;;;2.10;82.30;;;0.74;77.55;96433.75;4146293;33;20504;-84
2022/03/06 04:05:07;;;;;;;;;;;2.10;82.20;;;0.72;77.88;96435.81;4119556;33;20113;-84
2022/03/06 04:07:36;;;;;;;;;;;2.10;82.20;;;0.72;77.70;96432.28;4120984;33;20249;-86
2022/03/06 04:10:05;;;;;;;;;;;2.10;82.10;;;0.72;77.68;96441.22;4115576;34;20450;-84
2022/03/06 04:12:33;;;;;;;;;;;2.10;82.10;;;0.72;77.70;96435.81;4115739;34;19910;-85
2022/03/06 04:15:02;;;;;;;;;;;2.10;82.20;;;0.70;77.54;96442.44;4167461;33;20159;-84
2022/03/06 04:17:31;;;;;;;;;;;2.10;82.00;;;0.70;77.70;96434.38;4145301;33;20232;-83
2022/03/06 04:19:59;;;;;;;;;;;2.00;82.00;;;0.71;77.71;96427.94;4143443;33;20158;-83
2022/03/06 04:22:29;;;;;;;;;;;2.00;82.00;;;0.70;77.46;96431.69;4167120;33;20103;-84
2022/03/06 04:24:58;;;;;;;;;;;2.00;82.00;;;0.70;77.39;96426.28;4137723;33;19910;-83
2022/03/06 04:27:26;;;;;;;;;;;2.00;82.00;;;0.70;77.51;96432.50;4163455;33;20490;-84
2022/03/06 04:29:55;;;;;;;;;;;2.00;82.10;;;0.68;77.74;96417.56;4139638;33;19902;-84
2022/03/06 04:32:23;;;;;;;;;;;2.00;82.10;;;0.68;77.59;96420.25;4163352;33;20185;-84
2022/03/06 04:34:52;;;;;;;;;;;2.00;82.10;;;0.69;78.01;96424.63;4140087;33;20216;-83
2022/03/06 04:37:20;;;;;;;;;;;2.00;82.10;;;0.67;77.65;96416.72;4139163;33;20211;-84
2022/03/06 04:39:50;;;;;;;;;;;2.00;82.20;;;0.67;77.70;96413.22;4136931;33;20201;-83
2022/03/06 04:42:19;;;;;;;;;;;2.00;82.20;;;0.67;77.71;96416.72;4137518;33;19902;-85
2022/03/06 04:44:47;;;;;;;;;;;2.00;82.20;;;0.66;77.66;96416.94;4118070;33;20197;-83
2022/03/06 04:47:16;;;;;;;;;;;2.00;82.30;;;0.67;77.58;96414.03;4131333;33;19903;-83
2022/03/06 04:49:44;;;;;;;;;;;2.00;82.30;;;0.67;77.81;96411.34;4124576;33;20215;-84
2022/03/06 04:52:13;;;;;;;;;;;2.00;82.30;;;0.69;77.71;96427.31;4136028;33;19902;-84
2022/03/06 04:54:41;;;;;;;;;;;2.00;82.30;;;0.68;77.80;96418.38;4162285;33;20185;-84
2022/03/06 04:57:11;;;;;;;;;;;2.00;82.20;;;0.69;77.80;96427.31;4138321;33;19910;-84
2022/03/06 04:59:39;;;;;;;;;;;2.00;82.30;;;0.68;77.55;96422.97;4160615;33;19902;-84
2022/03/06 05:02:08;;;;;;;;;;;2.00;82.30;;;0.71;77.90;96427.94;4139198;33;20228;-84
2022/03/06 05:04:36;;;;;;;;;;;2.10;82.50;;;0.81;77.64;96423.00;4139895;33;20075;-84
2022/03/06 05:07:05;;;;;;;;;;;2.20;82.50;;;0.97;77.32;96429.06;4139448;33;19902;-85
2022/03/06 05:09:33;;;;;;;;;;;2.40;82.10;;;1.15;76.85;96423.88;4162362;33;19902;-84
2022/03/06 05:12:02;;;;;;;;;;;2.70;81.30;;;1.43;75.90;96430.97;4144753;33;20474;-84
2022/03/06 05:14:32;;;;;;;;;;;3.00;80.10;;;1.77;74.93;96426.38;4146329;33;20136;-84
2022/03/06 05:17:00;;;;;;;;;;;3.30;78.50;;;2.14;73.20;96436.72;4146540;33;20195;-84
2022/03/06 05:19:29;;;;;;;;;;;3.70;76.60;;;2.51;72.17;96444.31;4140786;33;19910;-84
2022/03/06 05:21:57;;;;;;;;;;;4.10;74.70;;;2.83;70.26;96447.09;4166636;33;20200;-84
2022/03/06 05:24:26;;;;;;;;;;;4.50;73.00;;;3.11;69.25;96440.50;4169668;33;19902;-83
2022/03/06 05:26:54;;;;;;;;;;;4.80;71.60;;;3.26;68.24;96437.47;4146722;33;20573;-83
2022/03/06 05:29:23;;;;;;;;;;;4.90;70.50;;;3.40;67.47;96449.88;4146556;33;20113;-84
2022/03/06 05:31:52;;;;;;;;;;;5.00;69.60;;;3.42;66.96;96457.78;4170174;33;20211;-84
2022/03/06 05:34:21;;;;;;;;;;;5.00;69.10;;;3.37;66.39;96453.00;4147050;33;20665;-85
2022/03/06 05:36:50;;;;;;;;;;;4.90;68.90;;;3.32;66.49;96459.09;4170738;33;20379;-84
2022/03/06 05:39:18;;;;;;;;;;;4.80;69.20;;;3.24;66.22;96451.25;4168990;33;20180;-83
2022/03/06 05:41:47;;;;;;;;;;;4.60;69.50;;;3.13;66.52;96454.63;4144431;33;20113;-84
2022/03/06 05:44:15;;;;;;;;;;;4.40;69.80;;;3.04;67.24;96452.16;4169580;33;20189;-84
2022/03/06 05:46:44;;;;;;;;;;;4.30;70.40;;;2.95;67.63;96464.28;4145755;33;19902;-84
2022/03/06 05:49:13;;;;;;;;;;;4.30;70.80;;;2.86;67.47;96465.59;4145318;33;20193;-82
2022/03/06 05:51:42;;;;;;;;;;;4.20;70.90;;;2.79;67.45;96462.91;4145602;33;20224;-84
2022/03/06 05:54:11;;;;;;;;;;;4.10;71.10;;;2.75;67.54;96465.22;4146161;33;20224;-83
2022/03/06 05:56:40;;;;;;;;;;;4.20;70.80;;;2.76;67.28;96461.47;4169955;33;20197;-83
2022/03/06 05:59:08;;;;;;;;;;;4.20;70.60;;;2.78;67.71;96463.97;4170632;33;20544;-83
2022/03/06 06:01:38;;;;;;;;;;;4.30;70.10;;;2.82;67.05;96465.19;4148414;33;19902;-83
2022/03/06 06:04:06;;;;;;;;;;;4.30;69.60;;;2.86;67.17;96465.59;4148213;33;20510;-83
2022/03/06 06:06:36;;;;;;;;;;;4.30;69.50;;;2.86;67.07;96463.69;4171031;33;20110;-83
2022/03/06 06:09:05;;;;;;;;;;;4.30;69.30;;;2.82;66.90;96467.06;4147160;33;20314;-83
2022/03/06 06:11:33;;;;;;;;;;;4.30;69.50;;;2.71;67.12;96468.56;4170460;33;20183;-83
2022/03/06 06:14:02;;;;;;;;;;;4.20;69.60;;;2.64;67.56;96470.44;4147074;33;19902;-83
2022/03/06 06:16:31;;;;;;;;;;;4.10;70.30;;;2.52;67.35;96464.91;4126201;33;19951;-83
2022/03/06 06:18:59;;;;;;;;;;;4.00;70.30;;;2.40;67.40;96462.81;4119174;33;20212;-84
2022/03/06 06:21:27;;;;;;;;;;;3.90;70.50;;;2.34;68.26;96463.69;4119415;33;20110;-83
2022/03/06 06:23:57;;;;;;;;;;;3.80;70.80;;;2.29;68.01;96477.00;4142319;33;20195;-83
2022/03/06 06:26:26;;;;;;;;;;;3.70;70.70;;;2.23;67.85;96478.66;4142252;33;20222;-83
2022/03/06 06:28:56;;;;;;;;;;;3.60;70.90;;;2.20;68.17;96486.38;4119725;33;19903;-83
2022/03/06 06:31:24;;;;;;;;;;;3.60;71.20;;;2.15;68.53;96492.41;4117331;33;20216;-83
2022/03/06 06:33:53;;;;;;;;;;;3.50;71.70;;;2.11;69.34;96486.59;4117573;33;20028;-82
2022/03/06 06:36:21;;;;;;;;;;;3.50;72.70;;;2.09;68.74;96477.03;4140102;33;19924;-84
2022/03/06 06:38:50;;;;;;;;;;;3.50;72.30;;;2.06;70.44;96486.38;4141645;33;20444;-84
2022/03/06 06:41:20;;;;;;;;;;;3.40;73.90;;;2.05;71.23;96482.03;4132581;33;20137;-83
2022/03/06 06:43:49;;;;;;;;;;;3.40;75.20;;;2.06;71.72;96482.88;4146658;33;19902;-83
2022/03/06 06:46:17;;;;;;;;;;;3.40;75.70;;;2.05;72.32;96479.31;4147549;33;20203;-83
2022/03/06 06:48:45;;;;;;;;;;;3.40;75.90;;;2.04;71.95;96483.06;4169949;33;19909;-83
2022/03/06 06:51:14;;;;;;;;;;;3.40;76.00;;;2.05;72.22;96487.41;4149677;33;20204;-84
2022/03/06 06:53:42;;;;;;;;;;;3.40;76.20;;;2.06;72.34;96489.09;4171757;33;19902;-83
2022/03/06 06:56:11;;;;;;;;;;;3.40;76.30;;;2.08;72.26;96491.56;4148456;33;20226;-84
2022/03/06 06:58:41;;;;;;;;;;;3.40;76.30;;;2.09;72.72;96488.66;4147292;33;19909;-83
2022/03/06 07:01:09;;;;;;;;;;;3.40;76.50;;;2.09;72.27;96488.66;4172171;33;20197;-83
2022/03/06 07:03:38;;;;;;;;;;;3.40;76.40;;;2.13;72.59;96486.38;4148380;33;20191;-83
2022/03/06 07:06:06;;;;;;;;;;;3.40;76.60;;;2.14;72.65;96480.75;4146380;33;20114;-84
2022/03/06 07:08:35;;;;;;;;;;;3.40;76.70;;;2.17;72.76;96479.53;4145097;33;20552;-84
2022/03/06 07:11:03;;;;;;;;;;;3.50;77.00;;;2.17;72.87;96482.22;4144289;33;19902;-83
2022/03/06 07:13:32;;;;;;;;;;;3.40;76.90;;;2.21;72.46;96478.03;4166801;33;20228;-83
2022/03/06 07:16:02;;;;;;;;;;;3.50;77.20;;;2.22;73.29;96481.59;4166441;33;20198;-84
2022/03/06 07:18:30;;;;;;;;;;;3.50;77.30;;;2.25;72.69;96478.47;4166445;33;20121;-83
2022/03/06 07:21:01;;;;;;;;;;;3.50;77.40;;;2.30;73.36;96484.06;4145560;33;20529;-84
2022/03/06 07:23:30;;;;;;;;;;;3.50;77.40;;;2.32;73.25;96479.28;4143493;33;20192;-83
2022/03/06 07:25:59;;;;;;;;;;;3.60;77.50;;;2.36;72.71;96476.97;4165691;33;19902;-83
2022/03/06 07:28:28;;;;;;;;;;;3.60;77.40;;;2.39;72.78;96477.38;4165142;33;20203;-84
2022/03/06 07:30:57;;;;;;;;;;;3.70;77.40;;;2.43;72.59;96489.44;4166711;33;19909;-84
2022/03/06 07:33:26;;;;;;;;;;;3.70;77.40;;;2.46;72.80;96485.47;4165741;33;20206;-83
2022/03/06 07:35:55;;;;;;;;;;;3.70;77.50;;;2.50;72.42;96486.72;4142294;33;20204;-83
2022/03/06 07:38:23;;;;;;;;;;;3.70;77.20;;;2.53;72.45;96477.34;4142354;33;19909;-84
2022/03/06 07:40:52;;;;;;;;;;;3.80;77.20;;;2.53;72.79;96478.19;4166872;33;20554;-83
2022/03/06 07:43:20;;;;;;;;;;;3.80;77.20;;;2.57;72.49;96482.13;4117677;33;20208;-83
2022/03/06 07:45:49;;;;;;;;;;;3.80;77.20;;;2.59;72.65;96484.63;4114805;33;19914;-83
2022/03/06 07:48:17;;;;;;;;;;;3.80;76.80;;;2.61;72.44;96479.81;4138477;33;20215;-83
2022/03/06 07:50:47;;;;;;;;;;;3.80;76.60;;;2.63;71.75;96483.16;4117810;33;20106;-83
2022/03/06 07:53:16;;;;;;;;;;;3.80;76.50;;;2.64;71.88;96479.41;4140701;33;19918;-83
2022/03/06 07:55:44;;;;;;;;;;;3.80;76.50;;;2.66;71.93;96485.41;4117341;33;20200;-82
2022/03/06 07:58:13;;;;;;;;;;;3.90;76.60;;;2.68;71.77;96496.84;4115677;33;19902;-83
2022/03/06 08:00:41;;;;;;;;;;;3.80;76.20;;;2.71;71.54;96490.19;4114903;33;20205;-83
2022/03/06 08:03:10;;;;;;;;;;;3.90;76.30;;;2.72;71.89;96492.69;4117044;33;20184;-83
2022/03/06 08:05:38;;;;;;;;;;;3.90;76.30;;;2.72;71.97;96481.88;4140983;33;19903;-83
2022/03/06 08:08:08;;;;;;;;;;;3.90;76.30;;;2.73;71.31;96485.38;4158680;33;20569;-83
2022/03/06 08:10:37;;;;;;;;;;;3.90;76.10;;;2.72;71.20;96486.44;4166523;33;20503;-84
2022/03/06 08:13:05;;;;;;;;;;;3.90;76.10;;;2.73;71.76;96486.22;4166742;33;20196;-83
2022/03/06 08:15:34;;;;;;;;;;;3.90;76.20;;;2.72;71.78;96481.88;4166634;33;19902;-84
2022/03/06 08:18:02;;;;;;;;;;;3.90;76.20;;;2.72;71.79;96486.44;4162610;33;20508;-83
2022/03/06 08:20:31;;;;;;;;;;;3.90;76.00;;;2.73;71.67;96482.69;4137262;33;19902;-83
2022/03/06 08:23:00;;;;;;;;;;;3.90;76.00;;;2.72;71.34;96481.88;4124412;33;20200;-83
2022/03/06 08:25:31;;;;;;;;;;;3.90;76.10;;;2.71;71.53;96479.38;4133128;33;20211;-83
2022/03/06 08:28:08;;;;;;;;;;;3.90;76.10;;;2.71;72.07;96468.56;4132296;33;20205;-83
2022/03/06 08:30:38;;;;;;;;;;;3.90;76.10;;;2.70;71.73;96473.13;4131846;33;19974;-83
2022/03/06 08:33:06;;;;;;;;;;;3.90;76.00;;;2.70;71.94;96470.44;4121921;33;20198;-83
2022/03/06 08:35:34;;;;;;;;;;;3.90;76.20;;;2.70;71.67;96472.31;4158993;33;20129;-83
2022/03/06 08:38:03;;;;;;;;;;;3.90;76.20;;;2.69;71.60;96465.25;4136777;33;20219;-83
2022/03/06 08:40:33;;;;;;;;;;;3.90;76.10;;;2.69;72.42;96470.66;4136416;33;20035;-82
2022/03/06 08:43:02;;;;;;;;;;;3.90;76.20;;;2.68;72.17;96469.81;4136996;33;19909;-83
2022/03/06 08:45:30;;;;;;;;;;;3.90;76.40;;;2.67;71.84;96462.75;4160608;33;20218;-83
2022/03/06 08:47:59;;;;;;;;;;;3.90;76.40;;;2.67;71.91;96468.16;4136389;33;19903;-83
2022/03/06 08:50:27;;;;;;;;;;;3.90;76.50;;;2.65;72.56;96456.72;4157673;33;20192;-83
2022/03/06 08:52:56;;;;;;;;;;;3.90;76.50;;;2.64;72.41;96457.78;4128967;33;19903;-83
2022/03/06 08:55:24;;;;;;;;;;;3.80;76.60;;;2.63;72.13;96460.69;4130635;33;20553;-83
2022/03/06 08:57:54;;;;;;;;;;;3.90;76.70;;;2.60;72.08;96453.84;4107808;33;19910;-83
2022/03/06 09:00:22;;;;;;;;;;;3.90;76.60;;;2.58;72.42;96442.41;4107331;33;19902;-83
2022/03/06 09:02:51;;;;;;;;;;;3.90;76.60;;;2.58;72.07;96453.22;4108493;33;20261;-83
2022/03/06 09:05:20;;;;;;;;;;;3.80;76.60;;;2.56;72.53;96449.91;4108092;33;19907;-83
2022/03/06 09:07:49;;;;;;;;;;;3.80;76.70;;;2.55;72.23;96448.22;4108744;33;20229;-83
2022/03/06 09:10:17;;;;;;;;;;;3.80;77.50;;;2.54;72.99;96451.97;4131438;33;20193;-83
2022/03/06 09:12:46;;;;;;;;;;;3.80;76.90;;;2.53;72.37;96442.22;4110895;33;20138;-83
2022/03/06 09:15:15;;;;;;;;;;;3.80;76.90;;;2.52;72.81;96448.69;4139897;33;20256;-83
2022/03/06 09:17:44;;;;;;;;;;;3.80;77.10;;;2.51;72.72;96444.31;4117340;33;20555;-83
2022/03/06 09:20:13;;;;;;;;;;;3.80;77.20;;;2.50;73.25;96448.06;4117312;33;19903;-83
2022/03/06 09:22:41;;;;;;;;;;;3.80;77.30;;;2.48;72.98;96442.03;4118576;33;19902;-83
2022/03/06 09:25:10;;;;;;;;;;;3.80;77.20;;;2.47;72.59;96443.06;4146761;33;19910;-83
2022/03/06 09:27:39;;;;;;;;;;;3.80;77.10;;;2.46;72.77;96431.44;4168429;33;19902;-83
2022/03/06 09:30:08;;;;;;;;;;;3.80;77.20;;;2.45;73.12;96437.91;4143932;33;20211;-84
2022/03/06 09:32:38;;;;;;;;;;;3.80;77.10;;;2.42;72.90;96428.31;4144723;33;19909;-83
2022/03/06 09:35:09;;;;;;;;;;;3.70;77.30;;;2.42;72.86;96432.91;4168077;33;19904;-83
2022/03/06 09:37:37;;;;;;;;;;;3.70;77.30;;;2.41;73.05;96426.66;4168513;33;19910;-82
2022/03/06 09:40:07;;;;;;;;;;;3.70;77.40;;;2.40;73.42;96440.41;4143976;33;20218;-84
2022/03/06 09:42:36;;;;;;;;;;;3.70;77.40;;;2.40;73.73;96435.00;4144140;33;20737;-83
2022/03/06 09:45:08;;;;;;;;;;;3.70;77.50;;;2.37;73.12;96425.44;4143927;33;19903;-84
2022/03/06 09:47:38;;;;;;;;;;;3.70;77.30;;;2.37;73.40;96425.44;4167737;33;20176;-84
2022/03/06 09:50:08;;;;;;;;;;;3.70;77.30;;;2.35;73.26;96419.44;4121873;33;20210;-84
2022/03/06 09:52:36;;;;;;;;;;;3.70;77.20;;;2.33;73.33;96418.81;4133922;33;20091;-83
2022/03/06 09:55:07;;;;;;;;;;;3.60;77.40;;;2.34;73.28;96416.91;4133034;33;20241;-83
2022/03/06 09:57:35;;;;;;;;;;;3.70;77.60;;;2.33;73.54;96417.97;4110694;33;19902;-83
2022/03/06 10:00:06;;;;;;;;;;;3.70;77.50;;;2.32;73.34;96410.91;4111052;33;20199;-83
2022/03/06 10:02:54;;;;;;;;;;;3.60;77.40;;;2.30;73.78;96419.22;4134298;33;19903;-84
2022/03/06 10:05:34;;;;;;;;;;;3.60;77.50;;;2.29;73.31;96406.75;4133193;33;20067;-83
2022/03/06 10:08:24;;;;;;;;;;;3.60;78.30;;;2.28;74.00;96405.09;4130116;33;20588;-82
2022/03/06 10:10:55;;;;;;;;;;;3.60;77.80;;;2.27;73.84;96404.28;4155485;33;20237;-83
2022/03/06 10:13:26;;;;;;;;;;;3.60;77.90;;;2.27;73.95;96404.28;4158672;33;20189;-83
2022/03/06 10:16:09;;;;;;;;;;;3.60;77.90;;;2.25;73.72;96400.94;4133048;33;19902;-83
2022/03/06 10:18:44;;;;;;;;;;;3.60;78.00;;;2.24;74.21;96402.00;4132117;33;19910;-83
2022/03/06 10:21:21;;;;;;;;;;;3.60;78.10;;;2.21;73.71;96391.59;4136728;33;20560;-84
2022/03/06 10:23:51;;;;;;;;;;;3.60;77.90;;;2.22;73.83;96397.84;4156522;33;20234;-83
2022/03/06 10:26:21;;;;;;;;;;;3.50;77.70;;;2.21;73.89;96393.50;4131963;33;20192;-84
2022/03/06 10:28:55;;;;;;;;;;;3.60;77.90;;;2.20;73.82;96394.53;4107277;33;20305;-83
2022/03/06 10:31:25;;;;;;;;;;;3.50;78.10;;;2.19;73.94;96390.16;4108013;33;20121;-83
2022/03/06 10:34:05;;;;;;;;;;;3.50;78.20;;;2.17;73.92;96382.28;4131191;33;20228;-82
2022/03/06 10:36:47;;;;;;;;;;;3.50;78.00;;;2.15;73.40;96379.78;4082145;34;20561;-83
2022/03/06 10:39:17;;;;;;;;;;;3.50;77.90;;;2.14;73.83;96378.13;4105102;34;19904;-83
2022/03/06 10:41:54;;;;;;;;;;;3.50;77.80;;;2.14;74.21;96378.13;4111532;34;20124;-83
2022/03/06 10:44:42;;;;;;;;;;;3.50;78.20;;;2.12;74.17;96380.22;4115447;33;20215;-84
2022/03/06 10:47:10;;;;;;;;;;;3.50;78.40;;;2.11;74.26;96373.16;4161865;33;19902;-84
2022/03/06 10:49:40;;;;;;;;;;;3.50;78.20;;;2.10;73.96;96371.50;4136641;33;20220;-83
2022/03/06 10:52:16;;;;;;;;;;;3.40;78.00;;;2.08;74.13;96360.09;4160479;33;20216;-83
2022/03/06 10:54:52;;;;;;;;;;;3.40;78.00;;;2.07;74.21;96358.44;4159728;33;20539;-84
2022/03/06 10:57:20;;;;;;;;;;;3.40;78.10;;;2.07;74.27;96357.56;4137044;33;19910;-84
2022/03/06 10:59:50;;;;;;;;;;;3.40;78.10;;;2.04;74.18;96361.53;4140491;33;20600;-83
2022/03/06 11:02:19;;;;;;;;;;;3.40;78.20;;;2.04;74.26;96356.16;4166901;33;20235;-84
2022/03/06 11:04:53;;;;;;;;;;;3.40;78.40;;;2.03;74.29;96343.69;4162992;33;20204;-84
2022/03/06 11:07:21;;;;;;;;;;;3.40;78.30;;;2.02;74.38;96352.81;4137878;33;20195;-84
2022/03/06 11:09:50;;;;;;;;;;;3.40;78.20;;;2.01;74.02;96345.75;4136427;33;19910;-83
2022/03/06 11:12:19;;;;;;;;;;;3.40;78.50;;;2.01;74.19;96337.66;4161432;33;20200;-84
2022/03/06 11:14:47;;;;;;;;;;;3.40;78.40;;;1.99;74.49;96337.06;4137089;33;20186;-83
2022/03/06 11:17:15;;;;;;;;;;;3.30;78.60;;;1.96;74.83;96330.19;4159805;33;19910;-84
2022/03/06 11:19:44;;;;;;;;;;;3.30;78.50;;;1.97;74.37;96328.34;4159656;33;20531;-84
2022/03/06 11:22:20;;;;;;;;;;;3.30;78.40;;;1.95;74.52;96322.31;4137022;33;19910;-84
2022/03/06 11:24:52;;;;;;;;;;;3.30;78.80;;;1.95;74.51;96319.63;4160469;33;20603;-84
2022/03/06 11:27:35;;;;;;;;;;;3.30;78.80;;;1.93;74.84;96321.72;4160979;33;20118;-84
2022/03/06 11:30:07;;;;;;;;;;;3.30;78.70;;;1.92;74.37;96314.66;4158248;33;19902;-83
2022/03/06 11:32:37;;;;;;;;;;;3.30;78.60;;;1.92;74.85;96312.78;4109323;33;19902;-83
2022/03/06 11:35:11;;;;;;;;;;;3.30;79.00;;;1.90;74.71;96316.72;4132900;33;20197;-84
2022/03/06 11:37:50;;;;;;;;;;;3.20;78.90;;;1.89;74.77;96310.50;4114388;33;20221;-83
2022/03/06 11:40:50;;;;;;;;;;;3.30;78.90;;;1.89;74.54;96321.31;4115217;33;19907;-83
2022/03/06 11:43:44;;;;;;;;;;;3.20;79.00;;;1.87;74.97;96306.38;4116417;33;19909;-84
2022/03/06 11:46:17;;;;;;;;;;;3.20;79.20;;;1.85;74.91;96295.78;4117702;33;20194;-83